Timeline UpdatesTrip UpdatesNews PostsPvt PostsTravel TipsAdmin PostsConv PostsFollowed PostsChat RequestsBlog PostsPNR Posts

Disclaimer
Search
 
 
Thu Jul 31, 2014 10:55:11 ISTHomeTrainsΣChainsAtlasPNRForumGalleryNewsFAQTripsMembersLoginFeedback
No Recent News for this Train
Other Trains in the News **new
Latest...
⇐ Return Journey: Train# 58117

58118/Gondia-Jharsuguda Passenger (UnReserved)

Sep 11 2013 (10:54PM)
Change Departure Station:
Change Arrival Station:
Post a Train Travel TipPost a Train Travel Tip **new
Post a Comment/Question/Picture/VideoPost a Comment/Question/Picture/Video
Pantry/Catering
???
RSA - Rake Sharing
Rake/Coach Composition
Loco
BIA WAM-4
News    PNR    Forum    Time-Table    Availability    Fare Chart    Map    Arr/Dep History    Trips    Gallery    ΣChains    X/O    Timeline    
Travel Time: 3h 10m    15 halts    Distance: 135 km    Avg Speed: 42 km/hr
Type: Passenger
Zone: SER/South Eastern
Departs @ 05:00 (Avg 3m late)
Platform# ???
SMTWTFS
Gondia Junction/G 
Arrives @ 08:10 (Avg 12m late)
Platform# ???
SMTWTFS
Durg Junction/DURG 

15 halts. 15 intermediate Stations between Gondia Junction and Durg Junction

Show ALL intermediate Stations  Show Old Time-Table

#CodeStation NameX/OArrivesAvgDepartsAvgHaltPFDay#KmSpeedElevZoneAddress
1Gondia Junction (7)»  -05:00+3--10.071316mSECRGondia 441601, Maharashtra
2GDMGudma (2)  05:10+1105:11+111m--111.973323mSECRGondia, Maharashtra
3AGNAmgaon (2)X  05:20+1105:22+122m--122.872317mSECRGondia, Maharashtra
4DNLDhanoli (2)X  05:28+2205:29+221m--130.164310mSECRAmgaon, Maharashtra
5SKSSalekasa (2)X  05:36+1405:38+182m--137.553312mSECRRajnandgaon, Chhattisgarh
6DKSDarekasa (2)  05:51+1705:52+201m--149.166381mSECRRajnandgaon, Chhattisgarh
7BTLBortalao (2)  05:59+2006:00+231m--156.844409mSECRRajnandgaon, Chhattisgarh
8PJBPaniajob (2)  06:12+2106:13+231m--165.638398mSECRRajnandgaon, Chhattisgarh
9DGGDongargarh (2)O  06:25+1806:35+1710m--173.365353mSECRDongargarh, Chhattisgarh
10JTRJatkanharO  06:41+1806:42+181m--179.840330mSECRRajnandgaon, Chhattisgarh
11MUAMusraX  06:52+1506:54+142m--186.459325mSECRRajnandgaon, Chhattisgarh
12BAKLBakal  07:02+1107:03+121m--194.353315mSECRRajnandgaon, Chhattisgarh
13RJNRaj Nandgaon (3)X  07:15+1307:20+125m--1104.859313mSECRRajnandgaon, Chhattisgarh
14PMSParmalkasa  07:28+707:29+71m--1112.770300mSECRRajnandgaon, Chhattisgarh
15MUPMurhipar  07:35+707:37+72m--1119.864319mSECRRajnandgaon, Chhattisgarh
16RSMRasmaraX  07:44+807:45+91m--1127.219292mSECRRasmada, Chhattisgarh
17DURG•Durg Junction (6)•  08:10+1208:15+135m--1135.339299mSECRPh: 91-788-2322059, Chhattisgarh
18BQRBhilai Nagar (2)X  08:22+1108:24+102m--1139.853298mSECRBhilai, Chhattisgarh
19BPHBBhilai Power House (3)X  08:29+808:31+82m--1144.256312mSECRBhilai, Chhattisgarh
20BIABhilai (2)X  08:36+1108:38+112m--1148.841309mSECRBhilai, Chhattisgarh
21KMIKumhari (2)X  08:54+1708:56+172m--1159.862287mSECRKumhari, Chhattisgarh
22SZBSarona Cabin (2)  09:02+1609:04+162m--1166.048282mSECRRaipur, Chhattisgarh
23SRWNSaraswatinagar (2)X  09:09+2209:11+222m--1169.915291mSECRRaipur, Chhattisgarh
24RRaipur Junction (6)  09:20+1509:27+167m--1172.231297mSECRRaipur, Chhattisgarh
25WRCWRS Colony PH  09:32+2909:33+291m--1174.830286mSECRRaipur, Chhattisgarh
26URKUrkuraX  09:39+2109:41+252m--1177.886275mSECRRaipur, Chhattisgarh
27MDHMandhar  09:47+2409:49+282m--1186.464281mSECRDonde Kalan, Chhattisgarh
28SLHSiliariX  09:58+2910:00+312m--1195.951280mSECRBanjari Rd, Chhattisgarh
29TLDTilda (3)  10:17+4210:19+422m--1210.449291mSECRBanjari Rd, Chhattisgarh
30HNHathbandhX  10:32+4110:34+412m--1221.184283mSECRRaipur, Chhattisgarh
31BYTBhatapara (4)XO  10:45+3210:47+342m--1236.480270mSECRBanjari Road, Chhattisgarh
32NPINipaniaX  10:58+5311:00+542m--1251.238259mSECRNational Highway 200, Chhattisgarh
33DGSDagoriO  11:13+5211:15+522m--1259.477254mSECRCollege Road, Chhattisgarh
34BYLBelhaX  11:21+5411:23+552m--1267.170269mSECRCollege Road, Chhattisgarh
35CHBTChakarbhatha  11:28+5111:30+512m--1272.937285mSECRBilaspur, Chhattisgarh
36DPHDadhapara (3)X  11:35+1:0011:40+1:015m--1276.04272mSECRBilaspur, Chhattisgarh
37BSPBilaspur Junction (8)  13:15+1013:45+1030m21282.643271mSECRBilaspur, Chhattisgarh
38GTWGatora  13:54+513:57+33m--1289.157268mSECRBilaspur, Chhattisgarh
39JRMGJairamnagar  14:05+314:07+102m--1296.867272mSECRNational Highway 200, Chhattisgarh
40KTSHKotmi Sonar Halt  14:13+214:15+22m--1303.564266mSECRKotmisunar, Chhattisgarh
41AKTAkaltara (4)  14:21+1014:23+102m--1309.966284mSECRDist. Janjgir Champa, Chhattisgarh
42KPNAKapan (1)X  14:30+114:32+12m11317.633263mSECRNational Highway 200, Chhattisgarh
43NIANaila  14:45+1314:50+145m--1324.843273mSECRJanjgir, Chhattisgarh
44CPHChampa Junction (3)X  15:05+1315:20+1215m--1335.767264mSECRNational Highway 200 (07819-245767), Chhattisgarh
45SGRDSaragaon RoadX  15:28+015:30+02m--1344.649254mSECRNational Highway 200, Chhattisgarh
46BUABaradwar  15:38+1515:40+202m--1351.271256mSECRJanjgir-Champa, Chhattisgarh
47JDDAJethaXO  15:46+015:48+02m--1358.317244mSECRNational Highway 200, Chhattisgarh
48SKTSakti (4)X  16:15+716:30+615m--1366.076237mSECRJanjgir-Champa, Chhattisgarh
49JDIJharradihX  16:38+1416:40+182m--1376.217247mSECRRaigarh, Chhattisgarh
50KHSKharsiaX  16:58+717:03+65m--1381.473259mSECRNational Highway 200, Chhattisgarh
51ROBRobertson  17:10+1017:12+102m--1389.968239mSECRRaigarh, Chhattisgarh
52BEFBhupdeopur  17:20+1217:22+112m--1399.079243mSECRRaigarh, Chhattisgarh
53KDTRKirodimalnagar (5)  17:29+1617:31+192m--1408.231240mSECRRaigarh, Chhattisgarh
54RIGRaigarh (3)  17:45+817:55+1010m--1415.473220mSECRRaigarh, Chhattisgarh
55KRLKotarlia  18:03+2618:05+262m--1425.1102229mSECRRaigarh, Chhattisgarh
56JMGJamgaX  18:10+2818:12+492m--1433.645233mSECRJamga Station, Chhattisgarh
57DAODaghora  18:28+4218:30+422m--1445.656269mSECRRaigarh, Chhattisgarh
58HGRHimgir  18:38+3618:40+362m--1453.081275mSECRNational Highway 200, Chhattisgarh
59BPHBelpaharO  18:50+3718:52+412m--1466.530235mSECRBelpahar, Odisha
60BRJNBrajrajnagarO  19:10+3119:15+305m--1475.420212mSECRBrajrajnagar, Odisha
61IBIb  19:23+3119:25+342m--1478.011207mSECRJharsuguda, Odisha
62JSGJharsuguda Junction (5)  20:15+6---1487.0-236mSERJharsuguda, Odisha
Scroll to Top
Scroll to Bottom